sensor_id;sensor_type;location;lat;lon;timestamp;P1;durP1;ratioP1;P2;durP2;ratioP2
12896;SDS011;6516;35.028;32.372;2023-09-07T00:00:35;17.42;;;14.27;;
12896;SDS011;6516;35.028;32.372;2023-09-07T00:03:03;19.60;;;15.23;;
12896;SDS011;6516;35.028;32.372;2023-09-07T00:05:32;18.17;;;14.88;;
12896;SDS011;6516;35.028;32.372;2023-09-07T00:07:59;19.58;;;14.43;;
12896;SDS011;6516;35.028;32.372;2023-09-07T00:10:27;22.13;;;15.23;;
12896;SDS011;6516;35.028;32.372;2023-09-07T00:12:55;20.52;;;14.38;;
12896;SDS011;6516;35.028;32.372;2023-09-07T00:15:23;21.30;;;14.98;;
12896;SDS011;6516;35.028;32.372;2023-09-07T00:17:53;19.40;;;15.23;;
12896;SDS011;6516;35.028;32.372;2023-09-07T00:20:21;20.15;;;14.50;;
12896;SDS011;6516;35.028;32.372;2023-09-07T00:22:50;18.60;;;14.63;;
12896;SDS011;6516;35.028;32.372;2023-09-07T00:25:18;18.08;;;14.52;;
12896;SDS011;6516;35.028;32.372;2023-09-07T00:27:46;20.27;;;14.57;;
12896;SDS011;6516;35.028;32.372;2023-09-07T00:30:14;23.50;;;15.02;;
12896;SDS011;6516;35.028;32.372;2023-09-07T00:32:42;18.30;;;14.32;;
12896;SDS011;6516;35.028;32.372;2023-09-07T00:35:11;18.20;;;13.93;;
12896;SDS011;6516;35.028;32.372;2023-09-07T00:37:39;18.75;;;14.52;;
12896;SDS011;6516;35.028;32.372;2023-09-07T00:40:07;20.73;;;14.25;;
12896;SDS011;6516;35.028;32.372;2023-09-07T00:42:35;19.27;;;15.18;;
12896;SDS011;6516;35.028;32.372;2023-09-07T00:45:03;16.63;;;14.23;;
12896;SDS011;6516;35.028;32.372;2023-09-07T00:47:32;18.17;;;13.93;;
12896;SDS011;6516;35.028;32.372;2023-09-07T00:50:02;18.33;;;14.20;;
12896;SDS011;6516;35.028;32.372;2023-09-07T00:52:32;18.58;;;14.68;;
12896;SDS011;6516;35.028;32.372;2023-09-07T00:55:01;18.80;;;15.23;;
12896;SDS011;6516;35.028;32.372;2023-09-07T00:57:29;21.02;;;14.40;;
12896;SDS011;6516;35.028;32.372;2023-09-07T00:59:57;19.03;;;14.27;;
12896;SDS011;6516;35.028;32.372;2023-09-07T01:02:25;18.17;;;14.45;;
12896;SDS011;6516;35.028;32.372;2023-09-07T01:04:55;22.13;;;14.82;;
12896;SDS011;6516;35.028;32.372;2023-09-07T01:07:24;19.95;;;14.65;;
12896;SDS011;6516;35.028;32.372;2023-09-07T01:09:57;18.85;;;14.32;;
12896;SDS011;6516;35.028;32.372;2023-09-07T01:12:27;22.70;;;15.17;;
12896;SDS011;6516;35.028;32.372;2023-09-07T01:14:55;19.15;;;14.48;;
12896;SDS011;6516;35.028;32.372;2023-09-07T01:17:24;20.27;;;15.60;;
12896;SDS011;6516;35.028;32.372;2023-09-07T01:19:52;18.73;;;14.02;;
12896;SDS011;6516;35.028;32.372;2023-09-07T01:22:22;18.60;;;14.88;;
12896;SDS011;6516;35.028;32.372;2023-09-07T01:24:51;17.87;;;13.87;;
12896;SDS011;6516;35.028;32.372;2023-09-07T01:27:19;18.75;;;13.55;;
12896;SDS011;6516;35.028;32.372;2023-09-07T01:29:47;20.58;;;15.00;;
12896;SDS011;6516;35.028;32.372;2023-09-07T01:32:16;18.98;;;14.63;;
12896;SDS011;6516;35.028;32.372;2023-09-07T01:34:43;18.58;;;14.43;;
12896;SDS011;6516;35.028;32.372;2023-09-07T01:37:11;21.10;;;15.20;;
12896;SDS011;6516;35.028;32.372;2023-09-07T01:39:40;18.25;;;14.93;;
12896;SDS011;6516;35.028;32.372;2023-09-07T01:42:08;20.88;;;14.77;;
12896;SDS011;6516;35.028;32.372;2023-09-07T01:44:36;21.10;;;14.73;;
12896;SDS011;6516;35.028;32.372;2023-09-07T01:47:04;20.38;;;15.52;;
12896;SDS011;6516;35.028;32.372;2023-09-07T01:49:32;19.77;;;15.87;;
12896;SDS011;6516;35.028;32.372;2023-09-07T01:52:00;20.38;;;15.65;;
12896;SDS011;6516;35.028;32.372;2023-09-07T01:54:29;21.05;;;15.90;;
12896;SDS011;6516;35.028;32.372;2023-09-07T01:56:58;23.10;;;16.25;;
12896;SDS011;6516;35.028;32.372;2023-09-07T01:59:26;20.73;;;15.18;;
12896;SDS011;6516;35.028;32.372;2023-09-07T02:01:53;20.00;;;15.70;;
12896;SDS011;6516;35.028;32.372;2023-09-07T02:04:21;18.52;;;14.57;;
12896;SDS011;6516;35.028;32.372;2023-09-07T02:06:49;22.02;;;16.17;;
12896;SDS011;6516;35.028;32.372;2023-09-07T02:09:16;20.60;;;15.65;;
12896;SDS011;6516;35.028;32.372;2023-09-07T02:11:44;18.30;;;15.20;;
12896;SDS011;6516;35.028;32.372;2023-09-07T02:14:13;20.63;;;14.53;;
12896;SDS011;6516;35.028;32.372;2023-09-07T02:16:42;20.10;;;14.82;;
12896;SDS011;6516;35.028;32.372;2023-09-07T02:19:10;20.85;;;14.48;;
12896;SDS011;6516;35.028;32.372;2023-09-07T02:21:40;20.00;;;13.50;;
12896;SDS011;6516;35.028;32.372;2023-09-07T02:24:07;22.90;;;14.77;;
12896;SDS011;6516;35.028;32.372;2023-09-07T02:26:35;21.07;;;14.23;;
12896;SDS011;6516;35.028;32.372;2023-09-07T02:29:08;19.70;;;14.55;;
12896;SDS011;6516;35.028;32.372;2023-09-07T02:31:38;20.52;;;14.80;;
12896;SDS011;6516;35.028;32.372;2023-09-07T02:34:06;18.98;;;14.48;;
12896;SDS011;6516;35.028;32.372;2023-09-07T02:36:33;19.42;;;14.73;;
12896;SDS011;6516;35.028;32.372;2023-09-07T02:39:01;21.23;;;14.37;;
12896;SDS011;6516;35.028;32.372;2023-09-07T02:41:31;24.17;;;14.88;;
12896;SDS011;6516;35.028;32.372;2023-09-07T02:43:59;18.48;;;15.05;;
12896;SDS011;6516;35.028;32.372;2023-09-07T02:46:26;21.20;;;15.00;;
12896;SDS011;6516;35.028;32.372;2023-09-07T02:48:55;20.88;;;15.25;;
12896;SDS011;6516;35.028;32.372;2023-09-07T02:51:23;20.20;;;15.07;;
12896;SDS011;6516;35.028;32.372;2023-09-07T02:53:51;24.42;;;15.63;;
12896;SDS011;6516;35.028;32.372;2023-09-07T02:56:23;18.25;;;14.95;;
12896;SDS011;6516;35.028;32.372;2023-09-07T02:58:51;18.40;;;15.00;;
12896;SDS011;6516;35.028;32.372;2023-09-07T03:01:18;22.10;;;15.88;;
12896;SDS011;6516;35.028;32.372;2023-09-07T03:03:47;19.70;;;16.00;;
12896;SDS011;6516;35.028;32.372;2023-09-07T03:06:17;21.65;;;15.57;;
12896;SDS011;6516;35.028;32.372;2023-09-07T03:08:45;20.40;;;16.05;;
12896;SDS011;6516;35.028;32.372;2023-09-07T03:11:13;22.08;;;15.50;;
12896;SDS011;6516;35.028;32.372;2023-09-07T03:13:40;20.58;;;16.35;;
12896;SDS011;6516;35.028;32.372;2023-09-07T03:16:08;22.63;;;17.00;;
12896;SDS011;6516;35.028;32.372;2023-09-07T03:18:36;23.73;;;16.65;;
12896;SDS011;6516;35.028;32.372;2023-09-07T03:21:04;24.13;;;16.33;;
12896;SDS011;6516;35.028;32.372;2023-09-07T03:23:34;22.35;;;17.33;;
12896;SDS011;6516;35.028;32.372;2023-09-07T03:26:01;20.08;;;15.82;;
12896;SDS011;6516;35.028;32.372;2023-09-07T03:28:29;25.10;;;16.87;;
12896;SDS011;6516;35.028;32.372;2023-09-07T03:30:57;24.58;;;16.90;;
12896;SDS011;6516;35.028;32.372;2023-09-07T03:33:25;26.75;;;15.93;;
12896;SDS011;6516;35.028;32.372;2023-09-07T03:35:52;31.52;;;16.27;;
12896;SDS011;6516;35.028;32.372;2023-09-07T03:38:24;40.45;;;17.20;;
12896;SDS011;6516;35.028;32.372;2023-09-07T03:40:53;21.97;;;15.33;;
12896;SDS011;6516;35.028;32.372;2023-09-07T03:43:21;22.55;;;15.65;;
12896;SDS011;6516;35.028;32.372;2023-09-07T03:45:48;22.20;;;15.52;;
12896;SDS011;6516;35.028;32.372;2023-09-07T03:48:16;23.35;;;15.70;;
12896;SDS011;6516;35.028;32.372;2023-09-07T03:50:44;22.08;;;15.45;;
12896;SDS011;6516;35.028;32.372;2023-09-07T03:53:12;19.27;;;14.53;;
12896;SDS011;6516;35.028;32.372;2023-09-07T03:55:40;21.85;;;16.02;;
12896;SDS011;6516;35.028;32.372;2023-09-07T03:58:10;19.90;;;16.13;;
12896;SDS011;6516;35.028;32.372;2023-09-07T04:00:38;20.73;;;15.50;;
12896;SDS011;6516;35.028;32.372;2023-09-07T04:03:07;20.10;;;16.50;;
12896;SDS011;6516;35.028;32.372;2023-09-07T04:05:36;20.13;;;15.57;;
12896;SDS011;6516;35.028;32.372;2023-09-07T04:08:05;23.30;;;16.63;;
12896;SDS011;6516;35.028;32.372;2023-09-07T04:10:36;20.67;;;16.00;;
12896;SDS011;6516;35.028;32.372;2023-09-07T04:13:04;22.20;;;15.25;;
12896;SDS011;6516;35.028;32.372;2023-09-07T04:15:39;20.83;;;15.68;;
12896;SDS011;6516;35.028;32.372;2023-09-07T04:18:09;19.07;;;14.60;;
12896;SDS011;6516;35.028;32.372;2023-09-07T04:20:38;19.17;;;14.57;;
12896;SDS011;6516;35.028;32.372;2023-09-07T04:23:05;19.95;;;15.52;;
12896;SDS011;6516;35.028;32.372;2023-09-07T04:25:33;17.55;;;14.40;;
12896;SDS011;6516;35.028;32.372;2023-09-07T04:28:01;17.45;;;14.48;;
12896;SDS011;6516;35.028;32.372;2023-09-07T04:30:30;20.00;;;14.93;;
12896;SDS011;6516;35.028;32.372;2023-09-07T04:32:59;18.20;;;14.95;;
12896;SDS011;6516;35.028;32.372;2023-09-07T04:35:28;17.15;;;14.18;;
12896;SDS011;6516;35.028;32.372;2023-09-07T04:37:57;22.08;;;14.70;;
12896;SDS011;6516;35.028;32.372;2023-09-07T04:40:25;20.67;;;14.35;;
12896;SDS011;6516;35.028;32.372;2023-09-07T04:42:53;22.73;;;14.17;;
12896;SDS011;6516;35.028;32.372;2023-09-07T04:45:20;19.23;;;13.27;;
12896;SDS011;6516;35.028;32.372;2023-09-07T04:47:49;18.58;;;13.15;;
12896;SDS011;6516;35.028;32.372;2023-09-07T04:50:18;16.65;;;13.05;;
12896;SDS011;6516;35.028;32.372;2023-09-07T04:52:46;17.48;;;12.20;;
12896;SDS011;6516;35.028;32.372;2023-09-07T04:55:14;13.57;;;11.23;;
12896;SDS011;6516;35.028;32.372;2023-09-07T04:57:42;14.48;;;11.30;;
12896;SDS011;6516;35.028;32.372;2023-09-07T05:00:10;17.30;;;11.35;;
12896;SDS011;6516;35.028;32.372;2023-09-07T05:02:39;15.68;;;10.82;;
12896;SDS011;6516;35.028;32.372;2023-09-07T05:05:08;14.02;;;9.93;;
12896;SDS011;6516;35.028;32.372;2023-09-07T05:07:37;12.83;;;9.43;;
12896;SDS011;6516;35.028;32.372;2023-09-07T05:10:05;12.93;;;9.52;;
12896;SDS011;6516;35.028;32.372;2023-09-07T05:12:37;15.52;;;9.18;;
12896;SDS011;6516;35.028;32.372;2023-09-07T05:15:05;13.63;;;8.93;;
12896;SDS011;6516;35.028;32.372;2023-09-07T05:17:33;14.63;;;9.77;;
12896;SDS011;6516;35.028;32.372;2023-09-07T05:20:02;11.93;;;8.33;;
12896;SDS011;6516;35.028;32.372;2023-09-07T05:22:30;12.10;;;8.88;;
12896;SDS011;6516;35.028;32.372;2023-09-07T05:25:03;11.80;;;8.50;;
12896;SDS011;6516;35.028;32.372;2023-09-07T05:27:32;9.90;;;8.35;;
12896;SDS011;6516;35.028;32.372;2023-09-07T05:30:00;10.60;;;8.52;;
12896;SDS011;6516;35.028;32.372;2023-09-07T05:32:28;11.30;;;8.37;;
12896;SDS011;6516;35.028;32.372;2023-09-07T05:34:56;13.95;;;8.55;;
12896;SDS011;6516;35.028;32.372;2023-09-07T05:37:23;11.45;;;8.63;;
12896;SDS011;6516;35.028;32.372;2023-09-07T05:39:51;10.38;;;8.15;;
12896;SDS011;6516;35.028;32.372;2023-09-07T05:42:20;10.10;;;7.82;;
12896;SDS011;6516;35.028;32.372;2023-09-07T05:44:48;13.03;;;7.43;;
12896;SDS011;6516;35.028;32.372;2023-09-07T05:47:16;10.88;;;7.45;;
12896;SDS011;6516;35.028;32.372;2023-09-07T05:49:44;9.70;;;7.57;;
12896;SDS011;6516;35.028;32.372;2023-09-07T05:52:11;12.38;;;7.38;;
12896;SDS011;6516;35.028;32.372;2023-09-07T05:54:39;9.90;;;7.35;;
12896;SDS011;6516;35.028;32.372;2023-09-07T05:57:07;10.33;;;7.43;;
12896;SDS011;6516;35.028;32.372;2023-09-07T05:59:36;11.65;;;7.47;;
12896;SDS011;6516;35.028;32.372;2023-09-07T06:02:04;12.45;;;7.30;;
12896;SDS011;6516;35.028;32.372;2023-09-07T06:04:32;11.43;;;7.30;;
12896;SDS011;6516;35.028;32.372;2023-09-07T06:07:00;13.00;;;7.78;;
12896;SDS011;6516;35.028;32.372;2023-09-07T06:09:28;10.00;;;6.80;;
12896;SDS011;6516;35.028;32.372;2023-09-07T06:11:56;9.48;;;6.60;;
12896;SDS011;6516;35.028;32.372;2023-09-07T06:14:23;10.98;;;7.22;;
12896;SDS011;6516;35.028;32.372;2023-09-07T06:16:53;11.40;;;7.22;;
12896;SDS011;6516;35.028;32.372;2023-09-07T06:19:21;12.30;;;7.55;;
12896;SDS011;6516;35.028;32.372;2023-09-07T06:21:49;13.13;;;6.93;;
12896;SDS011;6516;35.028;32.372;2023-09-07T06:24:16;10.80;;;6.78;;
12896;SDS011;6516;35.028;32.372;2023-09-07T06:26:45;11.52;;;6.80;;
12896;SDS011;6516;35.028;32.372;2023-09-07T06:29:13;10.88;;;6.82;;
12896;SDS011;6516;35.028;32.372;2023-09-07T06:31:41;9.90;;;6.47;;
12896;SDS011;6516;35.028;32.372;2023-09-07T06:34:10;9.23;;;6.40;;
12896;SDS011;6516;35.028;32.372;2023-09-07T06:36:38;13.57;;;6.45;;
12896;SDS011;6516;35.028;32.372;2023-09-07T06:39:06;10.02;;;7.03;;
12896;SDS011;6516;35.028;32.372;2023-09-07T06:41:34;10.68;;;6.53;;
12896;SDS011;6516;35.028;32.372;2023-09-07T06:44:02;10.27;;;6.20;;
12896;SDS011;6516;35.028;32.372;2023-09-07T06:46:30;11.63;;;6.30;;
12896;SDS011;6516;35.028;32.372;2023-09-07T06:48:58;9.98;;;6.22;;
12896;SDS011;6516;35.028;32.372;2023-09-07T06:51:27;10.98;;;6.50;;
12896;SDS011;6516;35.028;32.372;2023-09-07T06:53:55;12.05;;;6.40;;
12896;SDS011;6516;35.028;32.372;2023-09-07T06:56:22;8.85;;;6.53;;
12896;SDS011;6516;35.028;32.372;2023-09-07T06:58:51;11.87;;;6.73;;
12896;SDS011;6516;35.028;32.372;2023-09-07T07:01:19;10.20;;;6.00;;
12896;SDS011;6516;35.028;32.372;2023-09-07T07:03:47;12.65;;;6.75;;
12896;SDS011;6516;35.028;32.372;2023-09-07T07:06:15;11.50;;;6.00;;
12896;SDS011;6516;35.028;32.372;2023-09-07T07:08:45;10.13;;;6.30;;
12896;SDS011;6516;35.028;32.372;2023-09-07T07:11:12;10.37;;;5.80;;
12896;SDS011;6516;35.028;32.372;2023-09-07T07:13:40;10.55;;;6.18;;
12896;SDS011;6516;35.028;32.372;2023-09-07T07:16:08;9.88;;;5.80;;
12896;SDS011;6516;35.028;32.372;2023-09-07T07:18:35;13.00;;;6.38;;
12896;SDS011;6516;35.028;32.372;2023-09-07T07:21:05;14.20;;;6.57;;
12896;SDS011;6516;35.028;32.372;2023-09-07T07:23:34;11.20;;;6.43;;
12896;SDS011;6516;35.028;32.372;2023-09-07T07:26:03;9.30;;;6.20;;
12896;SDS011;6516;35.028;32.372;2023-09-07T07:28:31;10.20;;;6.15;;
12896;SDS011;6516;35.028;32.372;2023-09-07T07:30:59;11.82;;;6.18;;
12896;SDS011;6516;35.028;32.372;2023-09-07T07:33:35;10.98;;;6.32;;
12896;SDS011;6516;35.028;32.372;2023-09-07T07:36:03;8.87;;;5.50;;
12896;SDS011;6516;35.028;32.372;2023-09-07T07:38:32;9.93;;;5.88;;
12896;SDS011;6516;35.028;32.372;2023-09-07T07:41:00;10.40;;;6.13;;
12896;SDS011;6516;35.028;32.372;2023-09-07T07:43:30;10.80;;;6.15;;
12896;SDS011;6516;35.028;32.372;2023-09-07T07:45:59;9.48;;;5.80;;
12896;SDS011;6516;35.028;32.372;2023-09-07T07:48:27;10.27;;;6.03;;
12896;SDS011;6516;35.028;32.372;2023-09-07T07:50:55;9.90;;;5.70;;
12896;SDS011;6516;35.028;32.372;2023-09-07T07:53:23;15.18;;;6.03;;
12896;SDS011;6516;35.028;32.372;2023-09-07T07:55:50;11.10;;;5.82;;
12896;SDS011;6516;35.028;32.372;2023-09-07T07:58:20;13.40;;;6.00;;
12896;SDS011;6516;35.028;32.372;2023-09-07T08:00:47;9.77;;;5.50;;
12896;SDS011;6516;35.028;32.372;2023-09-07T08:03:15;9.55;;;5.78;;
12896;SDS011;6516;35.028;32.372;2023-09-07T08:05:43;10.45;;;5.72;;
12896;SDS011;6516;35.028;32.372;2023-09-07T08:08:11;10.05;;;5.90;;
12896;SDS011;6516;35.028;32.372;2023-09-07T08:10:38;9.70;;;5.45;;
12896;SDS011;6516;35.028;32.372;2023-09-07T08:13:07;8.93;;;5.40;;
12896;SDS011;6516;35.028;32.372;2023-09-07T08:15:36;8.90;;;5.13;;
12896;SDS011;6516;35.028;32.372;2023-09-07T08:18:04;10.13;;;5.65;;
12896;SDS011;6516;35.028;32.372;2023-09-07T08:20:32;10.63;;;5.40;;
12896;SDS011;6516;35.028;32.372;2023-09-07T08:23:00;8.60;;;5.55;;
12896;SDS011;6516;35.028;32.372;2023-09-07T08:25:32;7.27;;;5.00;;
12896;SDS011;6516;35.028;32.372;2023-09-07T08:28:02;9.05;;;5.30;;
12896;SDS011;6516;35.028;32.372;2023-09-07T08:30:31;9.48;;;5.43;;
12896;SDS011;6516;35.028;32.372;2023-09-07T08:33:01;9.55;;;5.60;;
12896;SDS011;6516;35.028;32.372;2023-09-07T08:35:31;9.30;;;5.35;;
12896;SDS011;6516;35.028;32.372;2023-09-07T08:38:00;11.67;;;5.50;;
12896;SDS011;6516;35.028;32.372;2023-09-07T08:40:30;9.60;;;5.43;;
12896;SDS011;6516;35.028;32.372;2023-09-07T08:43:02;8.18;;;5.30;;
12896;SDS011;6516;35.028;32.372;2023-09-07T08:45:31;9.00;;;4.90;;
12896;SDS011;6516;35.028;32.372;2023-09-07T08:48:10;9.95;;;5.43;;
12896;SDS011;6516;35.028;32.372;2023-09-07T08:50:42;9.27;;;5.13;;
12896;SDS011;6516;35.028;32.372;2023-09-07T08:53:16;9.15;;;5.45;;
12896;SDS011;6516;35.028;32.372;2023-09-07T08:55:45;9.98;;;5.72;;
12896;SDS011;6516;35.028;32.372;2023-09-07T08:58:13;9.75;;;5.80;;
12896;SDS011;6516;35.028;32.372;2023-09-07T09:00:41;8.80;;;5.15;;
12896;SDS011;6516;35.028;32.372;2023-09-07T09:03:11;10.20;;;5.20;;
12896;SDS011;6516;35.028;32.372;2023-09-07T09:05:39;10.52;;;5.22;;
12896;SDS011;6516;35.028;32.372;2023-09-07T09:08:07;9.43;;;5.38;;
12896;SDS011;6516;35.028;32.372;2023-09-07T09:10:37;9.82;;;5.18;;
12896;SDS011;6516;35.028;32.372;2023-09-07T09:13:07;9.32;;;4.97;;
12896;SDS011;6516;35.028;32.372;2023-09-07T09:15:36;9.60;;;5.07;;
12896;SDS011;6516;35.028;32.372;2023-09-07T09:18:12;9.77;;;4.95;;
12896;SDS011;6516;35.028;32.372;2023-09-07T09:20:40;8.73;;;4.80;;
12896;SDS011;6516;35.028;32.372;2023-09-07T09:23:08;9.07;;;4.47;;
12896;SDS011;6516;35.028;32.372;2023-09-07T09:25:39;7.93;;;4.35;;
12896;SDS011;6516;35.028;32.372;2023-09-07T09:28:08;7.90;;;4.73;;
12896;SDS011;6516;35.028;32.372;2023-09-07T09:30:36;11.45;;;4.60;;
12896;SDS011;6516;35.028;32.372;2023-09-07T09:33:04;12.45;;;4.20;;
12896;SDS011;6516;35.028;32.372;2023-09-07T09:35:34;8.90;;;4.15;;
12896;SDS011;6516;35.028;32.372;2023-09-07T09:38:02;9.32;;;4.53;;
12896;SDS011;6516;35.028;32.372;2023-09-07T09:40:30;8.03;;;3.90;;
12896;SDS011;6516;35.028;32.372;2023-09-07T09:42:59;7.47;;;4.30;;
12896;SDS011;6516;35.028;32.372;2023-09-07T09:45:29;8.30;;;4.53;;
12896;SDS011;6516;35.028;32.372;2023-09-07T09:47:57;9.27;;;4.35;;
12896;SDS011;6516;35.028;32.372;2023-09-07T09:50:25;8.18;;;4.28;;
12896;SDS011;6516;35.028;32.372;2023-09-07T09:52:55;9.20;;;4.40;;
12896;SDS011;6516;35.028;32.372;2023-09-07T09:55:24;10.18;;;4.40;;
12896;SDS011;6516;35.028;32.372;2023-09-07T09:57:53;8.93;;;4.80;;
12896;SDS011;6516;35.028;32.372;2023-09-07T10:00:22;8.25;;;4.30;;
12896;SDS011;6516;35.028;32.372;2023-09-07T10:02:55;9.77;;;4.32;;
12896;SDS011;6516;35.028;32.372;2023-09-07T10:05:28;7.87;;;4.30;;
12896;SDS011;6516;35.028;32.372;2023-09-07T10:08:08;9.85;;;4.45;;
12896;SDS011;6516;35.028;32.372;2023-09-07T10:10:40;12.68;;;4.93;;
12896;SDS011;6516;35.028;32.372;2023-09-07T10:13:12;9.85;;;4.38;;
12896;SDS011;6516;35.028;32.372;2023-09-07T10:15:42;12.35;;;4.43;;
12896;SDS011;6516;35.028;32.372;2023-09-07T10:18:10;8.43;;;4.40;;
12896;SDS011;6516;35.028;32.372;2023-09-07T10:20:47;8.38;;;4.32;;
12896;SDS011;6516;35.028;32.372;2023-09-07T10:23:22;26.85;;;5.00;;
12896;SDS011;6516;35.028;32.372;2023-09-07T10:26:02;9.30;;;4.32;;
12896;SDS011;6516;35.028;32.372;2023-09-07T10:28:31;8.48;;;4.22;;
12896;SDS011;6516;35.028;32.372;2023-09-07T10:30:59;7.87;;;3.97;;
12896;SDS011;6516;35.028;32.372;2023-09-07T10:33:32;8.23;;;4.40;;
12896;SDS011;6516;35.028;32.372;2023-09-07T10:36:01;10.15;;;4.93;;
12896;SDS011;6516;35.028;32.372;2023-09-07T10:38:33;8.48;;;4.50;;
12896;SDS011;6516;35.028;32.372;2023-09-07T10:41:02;8.45;;;4.57;;
12896;SDS011;6516;35.028;32.372;2023-09-07T10:43:31;10.90;;;4.67;;
12896;SDS011;6516;35.028;32.372;2023-09-07T10:46:01;9.10;;;4.57;;
12896;SDS011;6516;35.028;32.372;2023-09-07T10:48:29;11.02;;;4.65;;
12896;SDS011;6516;35.028;32.372;2023-09-07T10:50:57;8.65;;;4.50;;
12896;SDS011;6516;35.028;32.372;2023-09-07T10:53:27;9.98;;;4.43;;
12896;SDS011;6516;35.028;32.372;2023-09-07T10:55:58;8.50;;;4.50;;
12896;SDS011;6516;35.028;32.372;2023-09-07T10:58:30;8.20;;;4.70;;
12896;SDS011;6516;35.028;32.372;2023-09-07T11:00:59;8.20;;;4.47;;
12896;SDS011;6516;35.028;32.372;2023-09-07T11:03:28;7.93;;;4.28;;
12896;SDS011;6516;35.028;32.372;2023-09-07T11:05:56;8.10;;;4.32;;
12896;SDS011;6516;35.028;32.372;2023-09-07T11:08:30;10.17;;;4.50;;
12896;SDS011;6516;35.028;32.372;2023-09-07T11:10:59;9.85;;;4.90;;
12896;SDS011;6516;35.028;32.372;2023-09-07T11:13:28;9.15;;;4.60;;
12896;SDS011;6516;35.028;32.372;2023-09-07T11:15:56;8.70;;;4.15;;
12896;SDS011;6516;35.028;32.372;2023-09-07T11:18:25;10.43;;;4.70;;
12896;SDS011;6516;35.028;32.372;2023-09-07T11:20:53;8.37;;;4.60;;
12896;SDS011;6516;35.028;32.372;2023-09-07T11:23:21;12.55;;;5.03;;
12896;SDS011;6516;35.028;32.372;2023-09-07T11:25:49;9.02;;;4.30;;
12896;SDS011;6516;35.028;32.372;2023-09-07T11:28:19;7.13;;;4.25;;
12896;SDS011;6516;35.028;32.372;2023-09-07T11:30:49;9.25;;;4.57;;
12896;SDS011;6516;35.028;32.372;2023-09-07T11:33:18;10.00;;;4.50;;
12896;SDS011;6516;35.028;32.372;2023-09-07T11:35:46;15.18;;;5.50;;
12896;SDS011;6516;35.028;32.372;2023-09-07T11:38:15;14.27;;;4.40;;
12896;SDS011;6516;35.028;32.372;2023-09-07T11:40:43;12.88;;;4.70;;
12896;SDS011;6516;35.028;32.372;2023-09-07T11:43:11;12.65;;;4.82;;
12896;SDS011;6516;35.028;32.372;2023-09-07T11:45:42;7.90;;;4.40;;
12896;SDS011;6516;35.028;32.372;2023-09-07T11:48:10;13.98;;;4.72;;
12896;SDS011;6516;35.028;32.372;2023-09-07T11:50:39;10.45;;;4.68;;
12896;SDS011;6516;35.028;32.372;2023-09-07T11:53:07;9.05;;;4.53;;
12896;SDS011;6516;35.028;32.372;2023-09-07T11:55:36;11.90;;;4.47;;
12896;SDS011;6516;35.028;32.372;2023-09-07T11:58:06;9.57;;;4.20;;
12896;SDS011;6516;35.028;32.372;2023-09-07T12:00:34;11.95;;;4.50;;
12896;SDS011;6516;35.028;32.372;2023-09-07T12:03:03;8.68;;;4.65;;
12896;SDS011;6516;35.028;32.372;2023-09-07T12:05:32;9.35;;;4.25;;
12896;SDS011;6516;35.028;32.372;2023-09-07T12:08:01;8.93;;;4.30;;
12896;SDS011;6516;35.028;32.372;2023-09-07T12:10:29;8.17;;;4.20;;
12896;SDS011;6516;35.028;32.372;2023-09-07T12:12:57;10.18;;;4.57;;
12896;SDS011;6516;35.028;32.372;2023-09-07T12:15:25;11.82;;;4.78;;
12896;SDS011;6516;35.028;32.372;2023-09-07T12:17:53;9.73;;;4.70;;
12896;SDS011;6516;35.028;32.372;2023-09-07T12:20:22;8.80;;;4.95;;
12896;SDS011;6516;35.028;32.372;2023-09-07T12:22:50;10.17;;;4.30;;
12896;SDS011;6516;35.028;32.372;2023-09-07T12:25:18;13.40;;;4.63;;
12896;SDS011;6516;35.028;32.372;2023-09-07T12:27:47;9.52;;;4.70;;
12896;SDS011;6516;35.028;32.372;2023-09-07T12:30:15;7.28;;;4.30;;
12896;SDS011;6516;35.028;32.372;2023-09-07T12:32:45;17.92;;;5.13;;
12896;SDS011;6516;35.028;32.372;2023-09-07T12:35:13;9.40;;;4.67;;
12896;SDS011;6516;35.028;32.372;2023-09-07T12:37:43;6.85;;;4.40;;
12896;SDS011;6516;35.028;32.372;2023-09-07T12:40:11;10.93;;;4.72;;
12896;SDS011;6516;35.028;32.372;2023-09-07T12:42:42;9.38;;;4.38;;
12896;SDS011;6516;35.028;32.372;2023-09-07T12:45:12;7.90;;;4.43;;
12896;SDS011;6516;35.028;32.372;2023-09-07T12:47:40;9.67;;;4.27;;
12896;SDS011;6516;35.028;32.372;2023-09-07T12:50:08;9.68;;;5.35;;
12896;SDS011;6516;35.028;32.372;2023-09-07T12:52:36;10.38;;;5.15;;
12896;SDS011;6516;35.028;32.372;2023-09-07T12:55:06;8.13;;;4.25;;
12896;SDS011;6516;35.028;32.372;2023-09-07T12:57:34;9.30;;;4.80;;
12896;SDS011;6516;35.028;32.372;2023-09-07T13:00:02;8.43;;;4.20;;
12896;SDS011;6516;35.028;32.372;2023-09-07T13:02:32;7.75;;;4.60;;
12896;SDS011;6516;35.028;32.372;2023-09-07T13:05:00;13.02;;;5.10;;
12896;SDS011;6516;35.028;32.372;2023-09-07T13:07:30;9.75;;;4.90;;
12896;SDS011;6516;35.028;32.372;2023-09-07T13:09:59;8.23;;;4.38;;
12896;SDS011;6516;35.028;32.372;2023-09-07T13:12:30;10.23;;;4.67;;
12896;SDS011;6516;35.028;32.372;2023-09-07T13:14:58;9.30;;;4.78;;
12896;SDS011;6516;35.028;32.372;2023-09-07T13:17:26;9.35;;;4.90;;
12896;SDS011;6516;35.028;32.372;2023-09-07T13:19:54;11.65;;;5.63;;
12896;SDS011;6516;35.028;32.372;2023-09-07T13:22:22;9.77;;;5.13;;
12896;SDS011;6516;35.028;32.372;2023-09-07T13:24:50;9.23;;;5.03;;
12896;SDS011;6516;35.028;32.372;2023-09-07T13:27:17;9.45;;;5.05;;
12896;SDS011;6516;35.028;32.372;2023-09-07T13:29:47;8.82;;;5.20;;
12896;SDS011;6516;35.028;32.372;2023-09-07T13:32:14;9.05;;;4.85;;
12896;SDS011;6516;35.028;32.372;2023-09-07T13:34:42;8.07;;;5.47;;
12896;SDS011;6516;35.028;32.372;2023-09-07T13:37:10;7.93;;;4.90;;
12896;SDS011;6516;35.028;32.372;2023-09-07T13:39:38;8.77;;;4.85;;
12896;SDS011;6516;35.028;32.372;2023-09-07T13:42:05;8.90;;;5.00;;
12896;SDS011;6516;35.028;32.372;2023-09-07T13:44:33;9.30;;;4.90;;
12896;SDS011;6516;35.028;32.372;2023-09-07T13:47:02;10.77;;;5.43;;
12896;SDS011;6516;35.028;32.372;2023-09-07T13:49:30;11.47;;;5.40;;
12896;SDS011;6516;35.028;32.372;2023-09-07T13:51:58;11.85;;;5.60;;
12896;SDS011;6516;35.028;32.372;2023-09-07T13:54:26;8.52;;;5.30;;
12896;SDS011;6516;35.028;32.372;2023-09-07T13:56:54;11.13;;;5.60;;
12896;SDS011;6516;35.028;32.372;2023-09-07T13:59:22;8.77;;;4.90;;
12896;SDS011;6516;35.028;32.372;2023-09-07T14:01:54;10.80;;;5.57;;
12896;SDS011;6516;35.028;32.372;2023-09-07T14:04:23;7.53;;;5.10;;
12896;SDS011;6516;35.028;32.372;2023-09-07T14:06:51;9.77;;;5.68;;
12896;SDS011;6516;35.028;32.372;2023-09-07T14:09:18;9.25;;;5.13;;
12896;SDS011;6516;35.028;32.372;2023-09-07T14:11:48;10.55;;;5.13;;
12896;SDS011;6516;35.028;32.372;2023-09-07T14:14:16;8.63;;;5.07;;
12896;SDS011;6516;35.028;32.372;2023-09-07T14:16:43;9.82;;;5.10;;
12896;SDS011;6516;35.028;32.372;2023-09-07T14:19:11;9.65;;;5.35;;
12896;SDS011;6516;35.028;32.372;2023-09-07T14:21:41;13.77;;;6.03;;
12896;SDS011;6516;35.028;32.372;2023-09-07T14:24:09;9.27;;;5.47;;
12896;SDS011;6516;35.028;32.372;2023-09-07T14:26:36;9.20;;;5.33;;
12896;SDS011;6516;35.028;32.372;2023-09-07T14:29:04;9.77;;;5.57;;
12896;SDS011;6516;35.028;32.372;2023-09-07T14:31:32;11.55;;;5.55;;
12896;SDS011;6516;35.028;32.372;2023-09-07T14:33:59;10.05;;;5.75;;
12896;SDS011;6516;35.028;32.372;2023-09-07T14:36:27;10.55;;;5.60;;
12896;SDS011;6516;35.028;32.372;2023-09-07T14:38:57;10.87;;;5.90;;
12896;SDS011;6516;35.028;32.372;2023-09-07T14:41:24;9.38;;;5.40;;
12896;SDS011;6516;35.028;32.372;2023-09-07T14:43:53;8.82;;;5.80;;